Time;durP1;ratioP1;P1;durP2;ratioP2;P2;SDS_P1;SDS_P2;PMS_P1;PMS_P2;Temp;Humidity;BMP_temperature;BMP_pressure;BME280_temperature;BME280_humidity;BME280_pressure;Samples;Min_cycle;Max_cycle;Signal;HPM_P1;HPM_P2
2022/03/05 00:00:03;;;;;;;;;;;3.40;50.00;;;;;;5057492;28;19912;-89
2022/03/05 00:02:29;;;;;;;;;;;3.40;50.10;;;;;;5057026;28;20403;-90
2022/03/05 00:04:54;;;;;;;;;;;3.40;50.20;;;;;;5057392;28;19959;-90
2022/03/05 00:07:20;;;;;;;;;;;3.40;50.20;;;;;;5057230;28;19960;-89
2022/03/05 00:09:45;;;;;;;;;;;3.30;50.00;;;;;;5057909;28;19913;-89
2022/03/05 00:12:13;;;;;;;;;;;3.30;49.90;;;;;;5059138;28;19917;-89
2022/03/05 00:14:38;;;;;;;;;;;3.30;49.90;;;;;;5057579;28;19908;-90
2022/03/05 00:17:04;;;;;;;;;;;3.20;50.10;;;;;;5056753;28;19927;-90
2022/03/05 00:19:29;;;;;;;;;;;3.20;50.30;;;;;;5057792;28;19956;-90
2022/03/05 00:21:57;;;;;;;;;;;3.20;50.30;;;;;;5056676;28;19920;-89
2022/03/05 00:24:22;;;;;;;;;;;3.20;50.50;;;;;;5055768;28;19923;-88
2022/03/05 00:26:48;;;;;;;;;;;3.20;50.70;;;;;;5055041;28;20272;-88
2022/03/05 00:29:13;;;;;;;;;;;3.20;50.70;;;;;;5055898;28;19928;-90
2022/03/05 00:31:39;;;;;;;;;;;3.20;50.70;;;;;;5054724;28;20000;-88
2022/03/05 00:34:05;;;;;;;;;;;3.20;50.50;;;;;;5055882;28;19924;-88
2022/03/05 00:36:30;;;;;;;;;;;3.20;50.30;;;;;;5055431;28;19908;-88
2022/03/05 00:38:56;;;;;;;;;;;3.10;50.10;;;;;;5046030;28;20455;-88
2022/03/05 00:41:22;;;;;;;;;;;3.10;50.10;;;;;;5049443;28;19971;-88
2022/03/05 00:43:48;;;;;;;;;;;3.10;50.00;;;;;;5073253;28;19961;-88
2022/03/05 00:46:13;;;;;;;;;;;3.10;49.90;;;;;;5054748;28;20376;-88
2022/03/05 00:48:39;;;;;;;;;;;3.00;49.90;;;;;;5073692;28;20275;-88
2022/03/05 00:51:04;;;;;;;;;;;3.00;50.00;;;;;;5054811;28;19963;-88
2022/03/05 00:53:30;;;;;;;;;;;3.00;50.30;;;;;;5055779;28;19921;-88
2022/03/05 00:55:56;;;;;;;;;;;2.90;50.40;;;;;;5073564;28;20339;-88
2022/03/05 00:58:21;;;;;;;;;;;2.90;50.60;;;;;;5054101;28;20439;-88
2022/03/05 01:00:47;;;;;;;;;;;2.90;50.80;;;;;;5057875;28;20380;-88
2022/03/05 01:03:13;;;;;;;;;;;2.90;50.90;;;;;;5059789;28;19969;-88
2022/03/05 01:05:38;;;;;;;;;;;2.90;51.00;;;;;;5080290;28;20360;-88
2022/03/05 01:08:04;;;;;;;;;;;2.90;51.10;;;;;;5078841;28;20383;-87
2022/03/05 01:10:29;;;;;;;;;;;2.90;51.10;;;;;;5076728;28;20027;-88
2022/03/05 01:12:55;;;;;;;;;;;2.90;51.00;;;;;;5058827;28;19962;-88
2022/03/05 01:15:21;;;;;;;;;;;2.90;50.90;;;;;;5059528;28;19974;-88
2022/03/05 01:17:46;;;;;;;;;;;2.90;50.80;;;;;;5038581;28;20016;-88
2022/03/05 01:20:12;;;;;;;;;;;2.80;50.70;;;;;;5058555;28;19913;-88
2022/03/05 01:22:37;;;;;;;;;;;2.80;50.70;;;;;;5059045;28;19962;-88
2022/03/05 01:25:03;;;;;;;;;;;2.80;50.90;;;;;;5076737;28;19943;-88
2022/03/05 01:27:28;;;;;;;;;;;2.80;51.10;;;;;;5066801;28;20042;-88
2022/03/05 01:29:54;;;;;;;;;;;2.80;51.30;;;;;;5058321;28;19931;-88
2022/03/05 01:32:19;;;;;;;;;;;2.80;51.60;;;;;;5057970;28;19908;-88
2022/03/05 01:34:45;;;;;;;;;;;2.80;51.60;;;;;;5057654;28;20007;-88
2022/03/05 01:37:10;;;;;;;;;;;2.80;51.70;;;;;;5057846;28;19916;-88
2022/03/05 01:39:36;;;;;;;;;;;2.80;51.50;;;;;;5057967;28;19921;-88
2022/03/05 01:42:01;;;;;;;;;;;2.80;51.60;;;;;;5057587;28;20407;-88
2022/03/05 01:44:27;;;;;;;;;;;2.80;51.70;;;;;;5076435;28;19928;-88
2022/03/05 01:46:53;;;;;;;;;;;2.80;51.80;;;;;;5057111;28;19909;-88
2022/03/05 01:49:19;;;;;;;;;;;2.80;52.20;;;;;;5057341;28;19964;-88
2022/03/05 01:51:46;;;;;;;;;;;2.90;52.20;;;;;;5057387;28;19916;-88
2022/03/05 01:54:11;;;;;;;;;;;2.90;52.40;;;;;;5069398;28;19928;-88
2022/03/05 01:56:37;;;;;;;;;;;2.90;52.50;;;;;;5045630;28;20280;-88
2022/03/05 01:59:03;;;;;;;;;;;2.90;52.50;;;;;;5037833;28;20000;-88
2022/03/05 02:01:29;;;;;;;;;;;3.00;52.60;;;;;;5053902;28;20289;-88
2022/03/05 02:03:55;;;;;;;;;;;3.00;52.70;;;;;;5037850;28;19917;-88
2022/03/05 02:06:21;;;;;;;;;;;3.00;52.30;;;;;;5054812;28;20272;-89
2022/03/05 02:08:46;;;;;;;;;;;3.00;52.00;;;;;;5043125;28;20015;-88
2022/03/05 02:11:12;;;;;;;;;;;3.00;52.00;;;;;;5076040;28;20367;-88
2022/03/05 02:13:37;;;;;;;;;;;3.00;52.00;;;;;;5058125;28;19928;-88
2022/03/05 02:16:03;;;;;;;;;;;2.90;52.30;;;;;;5071040;28;19951;-88
2022/03/05 02:18:29;;;;;;;;;;;3.00;52.40;;;;;;5076922;28;20027;-89
2022/03/05 02:20:55;;;;;;;;;;;3.00;52.70;;;;;;5084774;28;19916;-88
2022/03/05 02:23:20;;;;;;;;;;;3.00;52.80;;;;;;5042913;28;19924;-88
2022/03/05 02:25:59;;;;;;;;;;;3.00;53.10;;;;;;5075196;28;20371;-88
2022/03/05 02:28:25;;;;;;;;;;;3.00;52.70;;;;;;5057594;28;19921;-87
2022/03/05 02:30:50;;;;;;;;;;;3.00;52.40;;;;;;5075411;28;19961;-89
2022/03/05 02:33:16;;;;;;;;;;;3.00;51.90;;;;;;5058626;28;20019;-88
2022/03/05 02:35:45;;;;;;;;;;;3.00;51.60;;;;;;5075465;28;20370;-88
2022/03/05 02:38:15;;;;;;;;;;;3.00;51.40;;;;;;5054372;28;19931;-88
2022/03/05 02:40:41;;;;;;;;;;;2.90;51.50;;;;;;5042249;28;19970;-88
2022/03/05 02:43:07;;;;;;;;;;;2.90;51.50;;;;;;5056955;28;19928;-88
2022/03/05 02:45:33;;;;;;;;;;;2.80;51.60;;;;;;5075152;28;19973;-88
2022/03/05 02:47:58;;;;;;;;;;;2.80;51.90;;;;;;5057783;28;19920;-88
2022/03/05 02:50:24;;;;;;;;;;;2.70;52.10;;;;;;5074667;28;20387;-88
2022/03/05 02:52:49;;;;;;;;;;;2.70;52.00;;;;;;5056574;28;19944;-88
2022/03/05 02:55:15;;;;;;;;;;;2.80;52.00;;;;;;5074868;28;19923;-88
2022/03/05 02:57:40;;;;;;;;;;;2.70;51.80;;;;;;5058410;28;19916;-88
2022/03/05 03:00:06;;;;;;;;;;;2.70;51.80;;;;;;5056350;28;19999;-88
2022/03/05 03:02:31;;;;;;;;;;;2.70;51.80;;;;;;5057087;28;19962;-88
2022/03/05 03:04:57;;;;;;;;;;;2.70;51.90;;;;;;5056633;28;19924;-88
2022/03/05 03:07:23;;;;;;;;;;;2.70;52.10;;;;;;5074438;28;20332;-88
2022/03/05 03:09:48;;;;;;;;;;;2.70;52.10;;;;;;5075017;28;19916;-89
2022/03/05 03:12:14;;;;;;;;;;;2.70;52.20;;;;;;5056420;28;19919;-89
2022/03/05 03:14:39;;;;;;;;;;;2.70;52.20;;;;;;5057208;28;20336;-89
2022/03/05 03:17:05;;;;;;;;;;;2.70;52.50;;;;;;5056286;28;19916;-89
2022/03/05 03:19:32;;;;;;;;;;;2.70;52.40;;;;;;5058261;28;19920;-88
2022/03/05 03:21:57;;;;;;;;;;;2.70;52.30;;;;;;5040188;28;19920;-89
2022/03/05 03:24:23;;;;;;;;;;;2.70;52.50;;;;;;5056409;28;19939;-89
2022/03/05 03:26:48;;;;;;;;;;;2.70;52.80;;;;;;5073294;28;19916;-88
2022/03/05 03:29:14;;;;;;;;;;;2.80;52.80;;;;;;5056350;28;19916;-89
2022/03/05 03:31:39;;;;;;;;;;;2.70;52.80;;;;;;5058203;28;19941;-88
2022/03/05 03:34:05;;;;;;;;;;;2.80;52.50;;;;;;5059171;28;20280;-89
2022/03/05 03:36:30;;;;;;;;;;;2.80;52.50;;;;;;5076737;28;19913;-89
2022/03/05 03:38:56;;;;;;;;;;;2.80;52.50;;;;;;5067071;28;20348;-89
2022/03/05 03:41:21;;;;;;;;;;;2.80;53.00;;;;;;5040703;28;19920;-89
2022/03/05 03:43:47;;;;;;;;;;;2.80;53.10;;;;;;5057614;28;19925;-89
2022/03/05 03:46:13;;;;;;;;;;;2.80;52.80;;;;;;5075347;28;20350;-88
2022/03/05 03:48:38;;;;;;;;;;;2.80;53.00;;;;;;5073698;28;20355;-87
2022/03/05 03:51:04;;;;;;;;;;;2.80;52.90;;;;;;5046667;28;19921;-88
2022/03/05 03:53:30;;;;;;;;;;;2.80;52.90;;;;;;5069975;28;19923;-88
2022/03/05 03:55:55;;;;;;;;;;;2.80;52.80;;;;;;5076059;28;20343;-89
2022/03/05 03:58:21;;;;;;;;;;;2.80;52.90;;;;;;5057735;28;20007;-88
2022/03/05 04:00:46;;;;;;;;;;;2.80;52.90;;;;;;5057192;28;20510;-89
2022/03/05 04:03:12;;;;;;;;;;;2.80;52.60;;;;;;5074912;28;20390;-89
2022/03/05 04:05:37;;;;;;;;;;;2.80;52.80;;;;;;5057968;28;20359;-87
2022/03/05 04:10:47;;;;;;;;;;;2.80;53.30;;;;;;5073878;28;19931;-87
2022/03/05 04:13:14;;;;;;;;;;;2.80;53.60;;;;;;5076172;28;19920;-88
2022/03/05 04:15:39;;;;;;;;;;;2.80;53.40;;;;;;5040343;28;19916;-88
2022/03/05 04:18:06;;;;;;;;;;;2.90;53.60;;;;;;5074641;28;19986;-88
2022/03/05 04:20:32;;;;;;;;;;;2.90;53.60;;;;;;5074758;28;19912;-88
2022/03/05 04:22:58;;;;;;;;;;;3.00;53.60;;;;;;5056519;28;19925;-89
2022/03/05 04:25:24;;;;;;;;;;;3.00;53.50;;;;;;5057082;28;19927;-87
2022/03/05 04:27:50;;;;;;;;;;;3.00;53.40;;;;;;5040669;28;19940;-88
2022/03/05 04:30:15;;;;;;;;;;;3.00;53.70;;;;;;5055920;28;20284;-88
2022/03/05 04:32:41;;;;;;;;;;;3.00;53.60;;;;;;5072800;28;19973;-88
2022/03/05 04:35:08;;;;;;;;;;;3.00;53.50;;;;;;5076893;28;20372;-88
2022/03/05 04:37:34;;;;;;;;;;;3.00;53.50;;;;;;5074965;28;20352;-88
2022/03/05 04:40:00;;;;;;;;;;;3.00;53.30;;;;;;5050976;28;19912;-88
2022/03/05 04:42:27;;;;;;;;;;;3.00;53.40;;;;;;5074096;28;19996;-88
2022/03/05 04:44:53;;;;;;;;;;;3.00;53.20;;;;;;5056894;28;20041;-88
2022/03/05 04:47:18;;;;;;;;;;;2.90;53.30;;;;;;5060625;28;19919;-89
2022/03/05 04:49:44;;;;;;;;;;;3.00;53.40;;;;;;5055029;28;20284;-89
2022/03/05 04:52:09;;;;;;;;;;;3.00;53.50;;;;;;5053168;28;19963;-89
2022/03/05 04:54:35;;;;;;;;;;;3.00;53.60;;;;;;5068658;28;19927;-88
2022/03/05 04:57:01;;;;;;;;;;;3.00;53.70;;;;;;5039946;28;19964;-88
2022/03/05 04:59:27;;;;;;;;;;;3.00;53.80;;;;;;5057105;28;19920;-89
2022/03/05 05:01:52;;;;;;;;;;;3.00;53.80;;;;;;5074859;28;19917;-88
2022/03/05 05:04:18;;;;;;;;;;;3.00;53.80;;;;;;5055850;28;19927;-89
2022/03/05 05:06:44;;;;;;;;;;;3.00;53.60;;;;;;5055740;28;19917;-89
2022/03/05 05:09:09;;;;;;;;;;;3.00;53.50;;;;;;5074158;28;19927;-89
2022/03/05 05:11:35;;;;;;;;;;;3.00;53.50;;;;;;5072901;28;19917;-88
2022/03/05 05:14:02;;;;;;;;;;;3.00;53.40;;;;;;5055161;28;19928;-88
2022/03/05 05:16:27;;;;;;;;;;;3.00;53.30;;;;;;5073371;28;20436;-89
2022/03/05 05:21:37;;;;;;;;;;;2.90;53.40;;;;;;5072404;28;19931;-89
2022/03/05 05:24:03;;;;;;;;;;;2.90;53.70;;;;;;5054672;28;19916;-89
2022/03/05 05:26:28;;;;;;;;;;;2.90;53.70;;;;;;5054546;28;20441;-89
2022/03/05 05:28:54;;;;;;;;;;;2.90;53.60;;;;;;5072114;28;19916;-88
2022/03/05 05:31:19;;;;;;;;;;;2.90;53.70;;;;;;5054785;28;20260;-88
2022/03/05 05:33:45;;;;;;;;;;;2.90;53.60;;;;;;5073058;28;20383;-89
2022/03/05 05:36:11;;;;;;;;;;;2.90;53.50;;;;;;5054579;28;20326;-89
2022/03/05 05:38:36;;;;;;;;;;;2.90;53.50;;;;;;5055347;28;19927;-88
2022/03/05 05:41:02;;;;;;;;;;;2.90;53.30;;;;;;5072611;28;19948;-88
2022/03/05 05:43:28;;;;;;;;;;;2.90;53.20;;;;;;5053328;28;19952;-88
2022/03/05 05:45:53;;;;;;;;;;;2.80;53.00;;;;;;5053895;28;19967;-89
2022/03/05 05:48:19;;;;;;;;;;;2.80;52.80;;;;;;5071723;28;19956;-90
2022/03/05 05:50:44;;;;;;;;;;;2.80;52.90;;;;;;5075691;28;19916;-88
2022/03/05 05:53:10;;;;;;;;;;;2.70;52.80;;;;;;5058454;28;19983;-89
2022/03/05 05:55:36;;;;;;;;;;;2.70;52.80;;;;;;5075751;28;20027;-89
2022/03/05 05:58:01;;;;;;;;;;;2.70;52.80;;;;;;5074920;28;19924;-90
2022/03/05 06:00:27;;;;;;;;;;;2.70;52.90;;;;;;5056859;28;19920;-88
2022/03/05 06:02:52;;;;;;;;;;;2.70;53.10;;;;;;5076016;28;19920;-89
2022/03/05 06:05:18;;;;;;;;;;;2.70;53.40;;;;;;5057140;28;19916;-88
2022/03/05 06:07:43;;;;;;;;;;;2.70;53.60;;;;;;5057133;28;20236;-89
2022/03/05 06:10:10;;;;;;;;;;;2.70;53.90;;;;;;5076006;28;19916;-88
2022/03/05 06:12:36;;;;;;;;;;;2.70;54.30;;;;;;5060496;28;19924;-88
2022/03/05 06:15:03;;;;;;;;;;;2.80;54.30;;;;;;5058704;28;19939;-88
2022/03/05 06:17:30;;;;;;;;;;;2.80;54.50;;;;;;5075601;28;19920;-88
2022/03/05 06:19:56;;;;;;;;;;;2.90;54.60;;;;;;5057145;28;19913;-88
2022/03/05 06:22:23;;;;;;;;;;;3.00;54.90;;;;;;5075683;28;20349;-89
2022/03/05 06:24:48;;;;;;;;;;;3.10;55.20;;;;;;5075612;28;19920;-87
2022/03/05 06:27:14;;;;;;;;;;;3.30;55.60;;;;;;5074952;28;20383;-88
2022/03/05 06:29:39;;;;;;;;;;;3.50;56.00;;;;;;5075702;28;19963;-90
2022/03/05 06:32:05;;;;;;;;;;;3.70;56.20;;;;;;5056433;28;19937;-89
2022/03/05 06:34:31;;;;;;;;;;;4.00;56.40;;;;;;5056907;28;19920;-88
2022/03/05 06:36:57;;;;;;;;;;;4.20;56.50;;;;;;5057173;28;20410;-89
2022/03/05 06:39:23;;;;;;;;;;;4.40;56.70;;;;;;5051644;28;19921;-87
2022/03/05 06:41:49;;;;;;;;;;;4.70;56.80;;;;;;5058263;28;19912;-87
2022/03/05 06:44:15;;;;;;;;;;;5.00;56.70;;;;;;5056876;28;19943;-89
2022/03/05 06:46:41;;;;;;;;;;;5.30;56.70;;;;;;5037756;28;19920;-88
2022/03/05 06:49:06;;;;;;;;;;;5.60;56.60;;;;;;5068571;28;19916;-88
2022/03/05 06:51:32;;;;;;;;;;;5.80;56.50;;;;;;5045491;28;19912;-88
2022/03/05 06:53:57;;;;;;;;;;;6.20;56.50;;;;;;5075579;28;19924;-87
2022/03/05 06:56:23;;;;;;;;;;;6.40;56.30;;;;;;5075726;28;19916;-88
2022/03/05 06:58:48;;;;;;;;;;;6.70;56.40;;;;;;5074404;28;19931;-88
2022/03/05 07:01:14;;;;;;;;;;;7.10;56.30;;;;;;5092043;28;19915;-88
2022/03/05 07:03:39;;;;;;;;;;;7.40;56.30;;;;;;5057881;28;20436;-89
2022/03/05 07:06:07;;;;;;;;;;;7.70;56.30;;;;;;5076283;28;19943;-88
2022/03/05 07:08:33;;;;;;;;;;;8.10;55.90;;;;;;5040770;28;19920;-88
2022/03/05 07:10:58;;;;;;;;;;;8.40;55.80;;;;;;5038668;28;20298;-88
2022/03/05 07:13:24;;;;;;;;;;;8.80;55.10;;;;;;5059297;28;19920;-90
2022/03/05 07:15:49;;;;;;;;;;;9.10;55.00;;;;;;5057272;28;19958;-89
2022/03/05 07:18:15;;;;;;;;;;;9.50;55.00;;;;;;5056900;28;19920;-89
2022/03/05 07:20:41;;;;;;;;;;;9.90;55.40;;;;;;5057499;28;19908;-89
2022/03/05 07:23:07;;;;;;;;;;;10.30;54.80;;;;;;5057376;28;19927;-88
2022/03/05 07:25:39;;;;;;;;;;;10.70;53.90;;;;;;5057678;28;20365;-89
2022/03/05 07:28:09;;;;;;;;;;;10.90;53.40;;;;;;5075505;28;19920;-88
2022/03/05 07:30:35;;;;;;;;;;;11.30;52.60;;;;;;5057416;28;19916;-88
2022/03/05 07:33:01;;;;;;;;;;;11.50;51.70;;;;;;5042523;28;20414;-89
2022/03/05 07:35:27;;;;;;;;;;;11.80;51.60;;;;;;5057413;28;19913;-87
2022/03/05 07:37:53;;;;;;;;;;;12.20;51.20;;;;;;5056905;28;19939;-88
2022/03/05 07:40:18;;;;;;;;;;;12.40;49.60;;;;;;5080428;28;19916;-88
2022/03/05 07:42:44;;;;;;;;;;;12.60;49.40;;;;;;5094539;28;19947;-88
2022/03/05 07:45:09;;;;;;;;;;;13.00;49.80;;;;;;5076258;28;20010;-87
2022/03/05 07:47:35;;;;;;;;;;;13.40;49.30;;;;;;5075827;28;19916;-88
2022/03/05 07:50:01;;;;;;;;;;;13.80;48.60;;;;;;5089546;28;19924;-88
2022/03/05 07:52:26;;;;;;;;;;;14.00;47.20;;;;;;5055180;28;19912;-87
2022/03/05 07:54:52;;;;;;;;;;;14.30;46.00;;;;;;5055752;28;19943;-88
2022/03/05 07:57:18;;;;;;;;;;;14.60;44.90;;;;;;5073529;28;20257;-87
2022/03/05 07:59:43;;;;;;;;;;;14.80;44.80;;;;;;5055291;28;20324;-88
2022/03/05 08:02:10;;;;;;;;;;;15.10;44.00;;;;;;5052432;28;20395;-87
2022/03/05 08:04:35;;;;;;;;;;;15.20;41.30;;;;;;5054593;28;19924;-87
2022/03/05 08:07:01;;;;;;;;;;;15.30;40.70;;;;;;5054636;28;20444;-87
2022/03/05 08:09:26;;;;;;;;;;;15.50;39.90;;;;;;5073186;28;20508;-87
2022/03/05 08:11:52;;;;;;;;;;;15.70;39.40;;;;;;5054867;28;20015;-88
2022/03/05 08:14:21;;;;;;;;;;;15.80;38.90;;;;;;5055462;28;19908;-88
2022/03/05 08:16:46;;;;;;;;;;;16.00;37.50;;;;;;5074956;28;20320;-87
2022/03/05 08:19:13;;;;;;;;;;;16.10;37.60;;;;;;5054491;28;20189;-87
2022/03/05 08:21:39;;;;;;;;;;;16.30;37.40;;;;;;5074405;28;19916;-88
2022/03/05 08:24:04;;;;;;;;;;;16.50;37.20;;;;;;5054768;28;19964;-88
2022/03/05 08:26:30;;;;;;;;;;;16.70;36.40;;;;;;5044988;28;20297;-89
2022/03/05 08:28:55;;;;;;;;;;;16.90;35.80;;;;;;5053188;28;19940;-89
2022/03/05 08:31:21;;;;;;;;;;;17.00;35.20;;;;;;5047067;28;19935;-88
2022/03/05 08:33:46;;;;;;;;;;;17.10;34.20;;;;;;5053740;28;19944;-88
2022/03/05 08:36:12;;;;;;;;;;;17.20;33.90;;;;;;5035400;28;19974;-89
2022/03/05 08:38:37;;;;;;;;;;;17.30;33.40;;;;;;5035319;28;19963;-88
2022/03/05 08:41:03;;;;;;;;;;;17.30;32.60;;;;;;5035990;28;20364;-88
2022/03/05 08:43:29;;;;;;;;;;;17.30;32.80;;;;;;5062655;28;20388;-87
2022/03/05 08:45:55;;;;;;;;;;;17.30;32.40;;;;;;5060754;28;20008;-89
2022/03/05 08:48:20;;;;;;;;;;;17.40;32.20;;;;;;5066084;28;19913;-89
2022/03/05 08:50:46;;;;;;;;;;;17.40;32.10;;;;;;5061000;28;19924;-90
2022/03/05 08:53:12;;;;;;;;;;;17.50;31.70;;;;;;5070994;28;19912;-89
2022/03/05 08:55:37;;;;;;;;;;;17.50;31.70;;;;;;5049080;28;19920;-89
2022/03/05 08:58:03;;;;;;;;;;;17.70;31.60;;;;;;5050881;28;19966;-88
2022/03/05 09:00:29;;;;;;;;;;;17.70;31.20;;;;;;5064768;28;19920;-88
2022/03/05 09:02:55;;;;;;;;;;;17.70;30.90;;;;;;5041670;28;20022;-89
2022/03/05 09:05:20;;;;;;;;;;;17.80;30.60;;;;;;5039755;28;20027;-88
2022/03/05 09:07:46;;;;;;;;;;;17.90;31.40;;;;;;5052967;28;19920;-89
2022/03/05 09:10:12;;;;;;;;;;;18.10;31.30;;;;;;5052808;28;19974;-89
2022/03/05 09:12:37;;;;;;;;;;;18.20;30.50;;;;;;5043436;28;20364;-89
2022/03/05 09:15:05;;;;;;;;;;;18.20;30.20;;;;;;5048391;28;19923;-89
2022/03/05 09:17:31;;;;;;;;;;;18.20;29.90;;;;;;5041469;28;19924;-88
2022/03/05 09:20:04;;;;;;;;;;;18.20;29.90;;;;;;5044538;28;19920;-89
2022/03/05 09:22:30;;;;;;;;;;;18.10;29.70;;;;;;5046849;28;20024;-89
2022/03/05 09:24:56;;;;;;;;;;;18.00;29.40;;;;;;5051050;28;19960;-90
2022/03/05 09:27:21;;;;;;;;;;;18.20;29.90;;;;;;5073876;28;19939;-89
2022/03/05 09:29:47;;;;;;;;;;;18.30;30.10;;;;;;5047262;28;20011;-89
2022/03/05 09:32:12;;;;;;;;;;;18.30;29.70;;;;;;5048143;28;20370;-89
2022/03/05 09:34:38;;;;;;;;;;;18.50;29.90;;;;;;5070223;28;20348;-88
2022/03/05 09:37:03;;;;;;;;;;;18.80;30.10;;;;;;5063822;28;19959;-88
2022/03/05 09:39:29;;;;;;;;;;;19.00;29.80;;;;;;5043444;28;19913;-88
2022/03/05 09:41:54;;;;;;;;;;;19.10;29.10;;;;;;5070398;28;19952;-88
2022/03/05 09:44:20;;;;;;;;;;;19.20;28.90;;;;;;5071261;28;19951;-88
2022/03/05 09:46:46;;;;;;;;;;;19.30;28.50;;;;;;5067152;28;19913;-89
2022/03/05 09:49:11;;;;;;;;;;;19.30;28.40;;;;;;5069444;28;20422;-88
2022/03/05 09:51:37;;;;;;;;;;;19.30;28.00;;;;;;5079193;28;20276;-89
2022/03/05 09:54:03;;;;;;;;;;;19.20;28.00;;;;;;5052115;28;20313;-89
2022/03/05 09:56:29;;;;;;;;;;;19.10;27.10;;;;;;5070843;28;19924;-89
2022/03/05 09:58:54;;;;;;;;;;;18.80;27.30;;;;;;5052849;28;19916;-88
2022/03/05 10:01:21;;;;;;;;;;;18.60;27.60;;;;;;5054389;28;19938;-88
2022/03/05 10:03:48;;;;;;;;;;;18.70;28.30;;;;;;5051695;28;19959;-90
2022/03/05 10:06:29;;;;;;;;;;;18.80;28.10;;;;;;5060987;28;19920;-89
2022/03/05 10:08:58;;;;;;;;;;;18.90;28.10;;;;;;5041534;28;19952;-89
2022/03/05 10:11:24;;;;;;;;;;;19.10;28.10;;;;;;5070387;28;20402;-89
2022/03/05 10:13:50;;;;;;;;;;;19.20;28.00;;;;;;5044703;28;20415;-90
2022/03/05 10:16:26;;;;;;;;;;;19.30;27.20;;;;;;5047595;28;19956;-89
2022/03/05 10:18:52;;;;;;;;;;;19.20;27.00;;;;;;5066096;28;20307;-89
2022/03/05 10:21:17;;;;;;;;;;;19.20;27.30;;;;;;5075811;28;20015;-90
2022/03/05 10:23:47;;;;;;;;;;;19.30;27.30;;;;;;5045031;28;19951;-89
2022/03/05 10:26:21;;;;;;;;;;;19.40;27.00;;;;;;5078654;28;19928;-90
2022/03/05 10:28:46;;;;;;;;;;;19.60;27.30;;;;;;5060923;28;20387;-88
2022/03/05 10:31:12;;;;;;;;;;;19.80;27.00;;;;;;5061215;28;19967;-89
2022/03/05 10:33:40;;;;;;;;;;;19.80;26.70;;;;;;5060767;28;19997;-89
2022/03/05 10:36:05;;;;;;;;;;;19.80;26.80;;;;;;5060167;28;19920;-89
2022/03/05 10:38:46;;;;;;;;;;;19.80;26.30;;;;;;5059676;28;20324;-89
2022/03/05 10:41:13;;;;;;;;;;;19.70;25.90;;;;;;5054020;28;19977;-88
2022/03/05 10:43:39;;;;;;;;;;;19.40;26.00;;;;;;5059078;28;19920;-88
2022/03/05 10:46:05;;;;;;;;;;;19.40;26.30;;;;;;5060054;28;19912;-90
2022/03/05 10:48:31;;;;;;;;;;;19.40;26.50;;;;;;5067681;28;19917;-89
2022/03/05 10:51:04;;;;;;;;;;;19.60;26.40;;;;;;5058129;28;20336;-88
2022/03/05 10:53:38;;;;;;;;;;;19.70;26.00;;;;;;5056124;28;19916;-88
2022/03/05 10:56:22;;;;;;;;;;;19.70;25.90;;;;;;5059915;28;19916;-90
2022/03/05 10:59:06;;;;;;;;;;;19.70;25.70;;;;;;5058410;28;20062;-89
2022/03/05 11:01:32;;;;;;;;;;;19.60;25.40;;;;;;5059626;28;19908;-89
2022/03/05 11:03:58;;;;;;;;;;;19.50;25.70;;;;;;5059450;28;19912;-88
2022/03/05 11:06:23;;;;;;;;;;;19.60;26.00;;;;;;5076448;28;19913;-88
2022/03/05 11:08:52;;;;;;;;;;;19.60;25.90;;;;;;5040877;28;19916;-88
2022/03/05 11:11:18;;;;;;;;;;;19.70;25.70;;;;;;5057419;28;20387;-90
2022/03/05 11:13:44;;;;;;;;;;;19.70;25.60;;;;;;5046131;28;19935;-89
2022/03/05 11:16:10;;;;;;;;;;;19.80;25.60;;;;;;5056215;28;19916;-90
2022/03/05 11:18:39;;;;;;;;;;;20.00;25.50;;;;;;5056875;28;20370;-89
2022/03/05 11:21:05;;;;;;;;;;;20.20;25.00;;;;;;5073417;28;19919;-89
2022/03/05 11:23:31;;;;;;;;;;;20.20;25.20;;;;;;5057000;28;20030;-88
2022/03/05 11:25:57;;;;;;;;;;;20.30;24.60;;;;;;5056094;28;19920;-88
2022/03/05 11:28:23;;;;;;;;;;;20.00;24.10;;;;;;5070620;28;20360;-89
2022/03/05 11:30:51;;;;;;;;;;;19.70;24.40;;;;;;5074036;28;19934;-89
2022/03/05 11:33:20;;;;;;;;;;;19.70;24.90;;;;;;5055539;28;19912;-89
2022/03/05 11:35:46;;;;;;;;;;;19.70;25.00;;;;;;5055907;28;19995;-89
2022/03/05 11:38:35;;;;;;;;;;;19.80;25.00;;;;;;5074187;28;19967;-89
2022/03/05 11:41:05;;;;;;;;;;;19.80;24.60;;;;;;5055910;28;19927;-90
2022/03/05 11:43:39;;;;;;;;;;;19.60;24.00;;;;;;5056201;28;19912;-90
2022/03/05 11:46:05;;;;;;;;;;;19.50;24.20;;;;;;5073908;28;19931;-89
2022/03/05 11:48:36;;;;;;;;;;;19.40;24.40;;;;;;5074149;28;19912;-89
2022/03/05 11:51:14;;;;;;;;;;;19.30;24.30;;;;;;5055795;28;19927;-89
2022/03/05 11:53:41;;;;;;;;;;;19.20;24.60;;;;;;5052429;28;20380;-89
2022/03/05 11:56:19;;;;;;;;;;;19.20;24.70;;;;;;5052095;28;19916;-89
2022/03/05 11:58:45;;;;;;;;;;;19.30;24.80;;;;;;5053419;28;19909;-89
2022/03/05 12:01:29;;;;;;;;;;;19.40;24.40;;;;;;5053195;28;19932;-88
2022/03/05 12:03:56;;;;;;;;;;;19.40;24.60;;;;;;5055234;28;19909;-89
2022/03/05 12:06:22;;;;;;;;;;;19.50;24.60;;;;;;5059719;28;19904;-89
2022/03/05 12:08:51;;;;;;;;;;;19.70;24.50;;;;;;5058396;28;20369;-89
2022/03/05 12:11:18;;;;;;;;;;;19.70;24.10;;;;;;5053452;28;20284;-89
2022/03/05 12:13:51;;;;;;;;;;;19.70;24.00;;;;;;5054283;28;19921;-90
2022/03/05 12:16:16;;;;;;;;;;;19.50;24.00;;;;;;5054906;28;20498;-89
2022/03/05 12:18:42;;;;;;;;;;;19.50;24.00;;;;;;5074389;28;19974;-89
2022/03/05 12:21:09;;;;;;;;;;;19.30;24.10;;;;;;5056499;28;20257;-87
2022/03/05 12:23:34;;;;;;;;;;;19.30;24.40;;;;;;5055792;28;19927;-89
2022/03/05 12:26:02;;;;;;;;;;;19.30;24.50;;;;;;5074019;28;20007;-89
2022/03/05 12:28:30;;;;;;;;;;;19.20;24.40;;;;;;5056223;28;20336;-88
2022/03/05 12:30:58;;;;;;;;;;;19.20;24.40;;;;;;5039786;28;19912;-89
2022/03/05 12:33:24;;;;;;;;;;;19.10;24.30;;;;;;5055878;28;19939;-89
2022/03/05 12:35:50;;;;;;;;;;;18.80;24.40;;;;;;5074304;28;19912;-89
2022/03/05 12:38:19;;;;;;;;;;;18.60;24.50;;;;;;5056376;28;20354;-89
2022/03/05 12:40:45;;;;;;;;;;;18.60;25.00;;;;;;5073932;28;19912;-89
2022/03/05 12:43:17;;;;;;;;;;;18.60;25.10;;;;;;5037832;28;19969;-89
2022/03/05 12:45:46;;;;;;;;;;;18.60;25.10;;;;;;5035340;28;19923;-89
2022/03/05 12:48:15;;;;;;;;;;;18.50;25.10;;;;;;5053765;28;19944;-90
2022/03/05 12:50:46;;;;;;;;;;;18.40;25.10;;;;;;5035928;28;19982;-88
2022/03/05 12:53:13;;;;;;;;;;;18.30;25.10;;;;;;5036752;28;19909;-88
2022/03/05 12:55:46;;;;;;;;;;;18.10;25.00;;;;;;5054084;28;19959;-90
2022/03/05 12:58:20;;;;;;;;;;;18.00;25.30;;;;;;5057366;28;19912;-89
2022/03/05 13:00:50;;;;;;;;;;;17.90;25.60;;;;;;5060068;28;19928;-89
2022/03/05 13:03:16;;;;;;;;;;;18.00;25.70;;;;;;5077786;28;19913;-88
2022/03/05 13:05:43;;;;;;;;;;;17.80;25.40;;;;;;5059078;28;19987;-91
2022/03/05 13:08:19;;;;;;;;;;;17.70;25.30;;;;;;5059209;28;20417;-89
2022/03/05 13:10:46;;;;;;;;;;;17.50;25.40;;;;;;5077734;28;19977;-90
2022/03/05 13:13:13;;;;;;;;;;;17.30;25.50;;;;;;5058897;28;20390;-90
2022/03/05 13:15:40;;;;;;;;;;;17.20;25.70;;;;;;5077640;28;20382;-89
2022/03/05 13:18:09;;;;;;;;;;;16.80;26.10;;;;;;5076898;28;19916;-89
2022/03/05 13:20:35;;;;;;;;;;;16.30;26.40;;;;;;5058348;28;19954;-88
2022/03/05 13:23:01;;;;;;;;;;;15.90;26.80;;;;;;5058455;28;19913;-88
2022/03/05 13:25:28;;;;;;;;;;;15.50;27.20;;;;;;5076132;28;19920;-89
2022/03/05 13:27:53;;;;;;;;;;;15.20;27.60;;;;;;5076381;28;19909;-89
2022/03/05 13:30:19;;;;;;;;;;;14.80;27.90;;;;;;5058534;28;20407;-89
2022/03/05 13:32:48;;;;;;;;;;;14.60;28.20;;;;;;5076519;28;20387;-88
2022/03/05 13:35:14;;;;;;;;;;;14.30;28.70;;;;;;5057530;28;19920;-89
2022/03/05 13:37:40;;;;;;;;;;;14.20;29.00;;;;;;5058197;28;19919;-89
2022/03/05 13:40:07;;;;;;;;;;;14.10;29.20;;;;;;5057571;28;19924;-88
2022/03/05 13:42:34;;;;;;;;;;;13.90;29.40;;;;;;5054362;28;20284;-89
2022/03/05 13:45:01;;;;;;;;;;;13.80;29.50;;;;;;5037290;28;20287;-89
2022/03/05 13:47:27;;;;;;;;;;;13.70;29.80;;;;;;5055817;28;19979;-89
2022/03/05 13:49:58;;;;;;;;;;;13.70;29.90;;;;;;5056787;28;19924;-88
2022/03/05 13:52:25;;;;;;;;;;;13.60;30.00;;;;;;5075848;28;19944;-89
2022/03/05 13:54:51;;;;;;;;;;;13.50;30.00;;;;;;5056567;28;19920;-88
2022/03/05 13:57:26;;;;;;;;;;;13.50;30.10;;;;;;5073780;28;19956;-89
2022/03/05 13:59:51;;;;;;;;;;;13.40;30.00;;;;;;5056454;28;19924;-88
2022/03/05 14:02:17;;;;;;;;;;;13.40;30.20;;;;;;5057554;28;20404;-88
2022/03/05 14:05:02;;;;;;;;;;;13.30;30.10;;;;;;5075107;28;19920;-88
2022/03/05 14:07:28;;;;;;;;;;;13.30;30.10;;;;;;5057476;28;19970;-89
2022/03/05 14:09:57;;;;;;;;;;;13.30;30.10;;;;;;5074771;28;20391;-89
2022/03/05 14:12:27;;;;;;;;;;;13.20;30.20;;;;;;5058026;28;20029;-89
2022/03/05 14:14:54;;;;;;;;;;;13.20;30.10;;;;;;5075880;28;20379;-89
2022/03/05 14:17:23;;;;;;;;;;;13.10;29.80;;;;;;5057093;28;19928;-89
2022/03/05 14:19:49;;;;;;;;;;;13.10;29.70;;;;;;5075890;28;19921;-88
2022/03/05 14:22:19;;;;;;;;;;;13.00;29.70;;;;;;5057570;28;19912;-88
2022/03/05 14:24:45;;;;;;;;;;;13.00;29.70;;;;;;5056699;28;19916;-89